Lemmer, Netherlands
Current Conditions -  °F | °C
As of 2:25 PM on Friday 28 Nov 2014 (Local Time) from EHLW Reporting Station
Haze Haze  
Wind Chill: 33°   Ceiling: Unl
Heat Index: 41°   Visibility: 5mi
Dew Point: 36°   Wind: 15mph
Humidity: 81%   Direction: 100°E
Pressure: 29.85"   Gusts: NA
Location:  52.85°N, 5.71°E
Report Text: EHLW 281325Z AUTO 10013KT 8000 BR OVC100 05/02 Q1011 BLU 10013KT 8000 NSC
Loading
Personal Weather Stations






























Interactive Weather Map New forecast layout! Learn more

10-Day Weather Forecast

Advertisements
Track Severe Weather on mobile